Time;durP1;ratioP1;P1;durP2;ratioP2;P2;SDS_P1;SDS_P2;PMS_P1;PMS_P2;Temp;Humidity;BMP_temperature;BMP_pressure;BME280_temperature;BME280_humidity;BME280_pressure;Samples;Min_cycle;Max_cycle;Signal;HPM_P1;HPM_P2
2021/11/05 00:00:39;;;;;;;;;;;5.20;1.00;;;;;;5031072;28;19909;-76
2021/11/05 00:03:05;;;;;;;;;;;5.20;1.00;;;;;;5028809;28;19959;-75
2021/11/05 00:05:31;;;;;;;;;;;5.20;1.00;;;;;;5029054;28;19913;-76
2021/11/05 00:07:58;;;;;;;;;;;5.20;1.00;;;;;;5030954;28;19913;-76
2021/11/05 00:10:24;;;;;;;;;;;5.20;1.00;;;;;;5030372;28;19909;-76
2021/11/05 00:12:49;;;;;;;;;;;5.20;1.00;;;;;;5030015;28;19909;-76
2021/11/05 00:15:15;;;;;;;;;;;5.20;1.00;;;;;;5030617;28;20301;-76
2021/11/05 00:17:41;;;;;;;;;;;5.10;1.00;;;;;;5030290;28;19909;-74
2021/11/05 00:20:07;;;;;;;;;;;5.10;1.00;;;;;;5030557;28;20000;-76
2021/11/05 00:22:34;;;;;;;;;;;5.20;1.00;;;;;;5030126;28;20430;-75
2021/11/05 00:25:00;;;;;;;;;;;5.20;1.00;;;;;;5030524;28;19919;-77
2021/11/05 00:27:25;;;;;;;;;;;5.30;1.00;;;;;;5029876;28;19917;-77
2021/11/05 00:29:51;;;;;;;;;;;5.30;1.00;;;;;;5031089;28;19909;-75
2021/11/05 00:32:16;;;;;;;;;;;5.40;1.00;;;;;;5029248;28;19912;-77
2021/11/05 00:34:42;;;;;;;;;;;5.40;1.00;;;;;;5031033;28;19909;-76
2021/11/05 00:37:07;;;;;;;;;;;5.50;1.00;;;;;;5030296;28;19967;-76
2021/11/05 00:39:33;;;;;;;;;;;5.50;1.00;;;;;;5030554;28;19956;-76
2021/11/05 00:41:59;;;;;;;;;;;5.50;1.00;;;;;;5028967;28;20053;-76
2021/11/05 00:44:24;;;;;;;;;;;5.60;1.00;;;;;;5031122;28;19971;-77
2021/11/05 00:46:50;;;;;;;;;;;5.50;1.00;;;;;;5030105;28;20319;-76
2021/11/05 00:49:16;;;;;;;;;;;5.50;1.00;;;;;;5030653;28;19913;-76
2021/11/05 00:51:41;;;;;;;;;;;5.50;1.00;;;;;;5029756;28;19951;-75
2021/11/05 00:54:08;;;;;;;;;;;5.40;1.00;;;;;;5030330;28;19940;-76
2021/11/05 00:56:34;;;;;;;;;;;5.40;1.00;;;;;;5030046;28;19932;-77
2021/11/05 00:59:00;;;;;;;;;;;5.40;1.00;;;;;;5012744;28;19985;-76
2021/11/05 01:01:25;;;;;;;;;;;5.50;1.00;;;;;;5029502;28;19909;-72
2021/11/05 01:03:51;;;;;;;;;;;5.50;1.00;;;;;;5030043;28;20338;-77
2021/11/05 01:06:18;;;;;;;;;;;5.50;1.00;;;;;;5029767;28;19920;-76
2021/11/05 01:08:43;;;;;;;;;;;5.50;1.00;;;;;;5012479;28;19921;-77
2021/11/05 01:11:09;;;;;;;;;;;5.50;1.00;;;;;;5029359;28;20543;-76
2021/11/05 01:13:35;;;;;;;;;;;5.40;1.00;;;;;;5029429;28;19924;-75
2021/11/05 01:16:01;;;;;;;;;;;5.40;1.00;;;;;;5029231;28;19913;-75
2021/11/05 01:18:26;;;;;;;;;;;5.40;1.00;;;;;;5030173;28;19909;-76
2021/11/05 01:20:52;;;;;;;;;;;5.40;1.00;;;;;;5029515;28;19909;-75
2021/11/05 01:23:19;;;;;;;;;;;5.40;1.00;;;;;;5028976;28;19920;-75
2021/11/05 01:25:44;;;;;;;;;;;5.40;1.00;;;;;;5028762;28;20401;-74
2021/11/05 01:28:10;;;;;;;;;;;5.40;1.00;;;;;;5029596;28;19929;-76
2021/11/05 01:30:35;;;;;;;;;;;5.40;1.00;;;;;;5027845;28;19916;-75
2021/11/05 01:33:06;;;;;;;;;;;5.40;1.00;;;;;;5028863;28;19913;-75
2021/11/05 01:35:33;;;;;;;;;;;5.40;1.00;;;;;;5011490;28;19909;-75
2021/11/05 01:37:58;;;;;;;;;;;5.40;1.00;;;;;;5029423;28;19920;-74
2021/11/05 01:40:24;;;;;;;;;;;5.40;1.00;;;;;;5028897;28;19910;-76
2021/11/05 01:42:49;;;;;;;;;;;5.40;1.00;;;;;;5028294;28;20312;-75
2021/11/05 01:45:15;;;;;;;;;;;5.40;1.00;;;;;;5028602;28;19909;-74
2021/11/05 01:47:41;;;;;;;;;;;5.40;1.00;;;;;;5028768;28;19960;-76
2021/11/05 01:50:08;;;;;;;;;;;5.30;1.00;;;;;;5028930;28;20684;-75
2021/11/05 01:52:33;;;;;;;;;;;5.30;1.00;;;;;;5028439;28;19919;-73
2021/11/05 01:54:59;;;;;;;;;;;5.20;1.00;;;;;;5029261;28;20333;-76
2021/11/05 01:57:25;;;;;;;;;;;5.10;1.00;;;;;;5029374;28;19913;-76
2021/11/05 01:59:52;;;;;;;;;;;5.10;1.00;;;;;;5029144;28;19909;-76
2021/11/05 02:02:17;;;;;;;;;;;5.10;1.00;;;;;;5027815;28;19917;-75
2021/11/05 02:04:43;;;;;;;;;;;5.00;1.00;;;;;;5029305;28;19916;-73
2021/11/05 02:07:12;;;;;;;;;;;5.00;1.00;;;;;;5028706;28;20002;-74
2021/11/05 02:09:40;;;;;;;;;;;5.00;1.00;;;;;;5029417;28;19924;-75
2021/11/05 02:12:06;;;;;;;;;;;4.90;1.00;;;;;;5027087;28;20461;-74
2021/11/05 02:14:32;;;;;;;;;;;4.90;1.00;;;;;;5029118;28;19948;-74
2021/11/05 02:16:59;;;;;;;;;;;4.80;1.00;;;;;;5027847;28;20028;-75
2021/11/05 02:19:25;;;;;;;;;;;4.90;1.00;;;;;;5029229;28;19913;-74
2021/11/05 02:21:52;;;;;;;;;;;4.90;1.00;;;;;;5027646;28;19909;-75
2021/11/05 02:24:19;;;;;;;;;;;4.90;1.00;;;;;;5028628;28;20337;-75
2021/11/05 02:26:45;;;;;;;;;;;4.90;1.00;;;;;;5027987;28;20298;-73
2021/11/05 02:29:11;;;;;;;;;;;4.90;1.00;;;;;;5028728;28;19921;-74
2021/11/05 02:31:37;;;;;;;;;;;4.90;1.00;;;;;;5028187;28;19913;-75
2021/11/05 02:34:02;;;;;;;;;;;4.90;1.00;;;;;;5027827;28;20000;-74
2021/11/05 02:36:28;;;;;;;;;;;4.90;1.00;;;;;;5027699;28;19913;-75
2021/11/05 02:38:53;;;;;;;;;;;4.90;1.00;;;;;;5028950;28;19909;-75
2021/11/05 02:41:20;;;;;;;;;;;5.00;1.00;;;;;;5027551;28;19913;-75
2021/11/05 02:43:46;;;;;;;;;;;5.10;1.00;;;;;;5028048;28;19937;-75
2021/11/05 02:46:12;;;;;;;;;;;5.10;1.00;;;;;;5027784;28;20079;-76
2021/11/05 02:48:37;;;;;;;;;;;5.20;1.00;;;;;;5028728;28;20350;-76
2021/11/05 02:51:03;;;;;;;;;;;5.20;1.00;;;;;;5028070;28;20468;-75
2021/11/05 02:53:28;;;;;;;;;;;5.30;1.00;;;;;;5028009;28;19925;-76
2021/11/05 02:55:54;;;;;;;;;;;5.30;1.00;;;;;;5029212;28;20047;-75
2021/11/05 02:58:19;;;;;;;;;;;5.40;1.00;;;;;;5031933;28;19916;-74
2021/11/05 03:00:45;;;;;;;;;;;5.40;1.00;;;;;;5013980;28;19921;-74
2021/11/05 03:03:11;;;;;;;;;;;5.50;1.00;;;;;;5031535;28;19996;-75
2021/11/05 03:05:37;;;;;;;;;;;5.50;1.00;;;;;;5031901;28;20060;-76
2021/11/05 03:08:02;;;;;;;;;;;5.50;1.00;;;;;;5032239;28;19944;-75
2021/11/05 03:10:28;;;;;;;;;;;5.60;1.00;;;;;;5031092;28;20277;-75
2021/11/05 03:12:53;;;;;;;;;;;5.60;1.00;;;;;;5030884;28;20334;-74
2021/11/05 03:15:19;;;;;;;;;;;5.60;1.00;;;;;;5032338;28;19921;-75
2021/11/05 03:17:45;;;;;;;;;;;5.60;1.00;;;;;;5031538;28;20392;-75
2021/11/05 03:20:11;;;;;;;;;;;5.60;1.00;;;;;;5031771;28;20437;-74
2021/11/05 03:22:37;;;;;;;;;;;5.60;1.00;;;;;;5031013;28;19913;-74
2021/11/05 03:25:03;;;;;;;;;;;5.60;1.00;;;;;;5031675;28;19954;-76
2021/11/05 03:27:28;;;;;;;;;;;5.60;1.00;;;;;;5031131;28;20019;-75
2021/11/05 03:29:54;;;;;;;;;;;5.60;1.00;;;;;;5032141;28;19914;-76
2021/11/05 03:32:19;;;;;;;;;;;5.60;1.00;;;;;;5030459;28;20476;-75
2021/11/05 03:34:45;;;;;;;;;;;5.60;1.00;;;;;;5031430;28;20370;-74
2021/11/05 03:37:10;;;;;;;;;;;5.60;1.00;;;;;;5031407;28;19909;-74
2021/11/05 03:39:36;;;;;;;;;;;5.60;1.00;;;;;;5031658;28;20325;-75
2021/11/05 03:42:01;;;;;;;;;;;5.50;1.00;;;;;;5030382;28;19954;-75
2021/11/05 03:44:27;;;;;;;;;;;5.50;1.00;;;;;;5031659;28;19932;-75
2021/11/05 03:46:53;;;;;;;;;;;5.50;1.00;;;;;;5030651;28;19984;-74
2021/11/05 03:49:18;;;;;;;;;;;5.50;1.00;;;;;;5031347;28;19929;-75
2021/11/05 03:51:44;;;;;;;;;;;5.60;1.00;;;;;;5012282;28;20000;-74
2021/11/05 03:54:09;;;;;;;;;;;5.60;1.00;;;;;;5031052;28;20059;-75
2021/11/05 03:56:35;;;;;;;;;;;5.60;1.00;;;;;;5030009;28;20055;-71
2021/11/05 03:59:01;;;;;;;;;;;5.60;1.00;;;;;;5031099;28;19913;-72
2021/11/05 04:01:26;;;;;;;;;;;5.60;1.00;;;;;;5030377;28;19909;-72
2021/11/05 04:03:52;;;;;;;;;;;5.70;1.00;;;;;;5030339;28;19909;-72
2021/11/05 04:06:18;;;;;;;;;;;5.70;1.00;;;;;;5030493;28;19913;-73
2021/11/05 04:08:44;;;;;;;;;;;5.70;1.00;;;;;;5029696;28;19913;-73
2021/11/05 04:11:09;;;;;;;;;;;5.70;1.00;;;;;;5029881;28;19960;-72
2021/11/05 04:13:35;;;;;;;;;;;5.70;1.00;;;;;;5030503;28;19960;-72
2021/11/05 04:16:00;;;;;;;;;;;5.70;1.00;;;;;;5030499;28;19971;-72
2021/11/05 04:18:26;;;;;;;;;;;5.70;1.00;;;;;;5030726;28;19909;-72
2021/11/05 04:20:51;;;;;;;;;;;5.80;1.00;;;;;;5030255;28;20323;-73
2021/11/05 04:23:17;;;;;;;;;;;5.80;1.00;;;;;;5029795;28;19958;-72
2021/11/05 04:25:44;;;;;;;;;;;5.80;1.00;;;;;;5030190;28;19913;-73
2021/11/05 04:28:10;;;;;;;;;;;5.80;1.00;;;;;;5030026;28;20008;-73
2021/11/05 04:30:36;;;;;;;;;;;5.80;1.00;;;;;;5030208;28;19944;-73
2021/11/05 04:33:01;;;;;;;;;;;5.80;1.00;;;;;;5029622;28;20031;-71
2021/11/05 04:35:27;;;;;;;;;;;5.80;1.00;;;;;;5029907;28;20373;-72
2021/11/05 04:37:53;;;;;;;;;;;5.80;1.00;;;;;;5030250;28;19992;-71
2021/11/05 04:40:18;;;;;;;;;;;5.90;1.00;;;;;;5029819;28;19909;-73
2021/11/05 04:42:44;;;;;;;;;;;5.90;1.00;;;;;;5028947;28;19909;-72
2021/11/05 04:45:09;;;;;;;;;;;5.90;1.00;;;;;;5029976;28;19931;-73
2021/11/05 04:47:35;;;;;;;;;;;5.90;1.00;;;;;;5029435;28;20299;-72
2021/11/05 04:50:00;;;;;;;;;;;5.90;1.00;;;;;;5029549;28;20007;-72
2021/11/05 04:52:26;;;;;;;;;;;5.90;1.00;;;;;;5029332;28;19909;-71
2021/11/05 04:54:51;;;;;;;;;;;5.90;1.00;;;;;;5030032;28;19964;-74
2021/11/05 04:57:17;;;;;;;;;;;5.90;1.00;;;;;;5028976;28;19955;-71
2021/11/05 04:59:43;;;;;;;;;;;5.90;1.00;;;;;;5030087;28;19909;-73
2021/11/05 05:02:10;;;;;;;;;;;5.90;1.00;;;;;;5028745;28;20317;-72
2021/11/05 05:04:35;;;;;;;;;;;6.00;1.00;;;;;;5030013;28;20373;-71
2021/11/05 05:07:01;;;;;;;;;;;6.00;1.00;;;;;;5029162;28;20069;-74
2021/11/05 05:09:26;;;;;;;;;;;5.90;1.00;;;;;;5029712;28;19963;-73
2021/11/05 05:11:52;;;;;;;;;;;6.00;1.00;;;;;;5027768;28;20008;-72
2021/11/05 05:14:17;;;;;;;;;;;6.00;1.00;;;;;;5029822;28;19928;-73
2021/11/05 05:16:43;;;;;;;;;;;6.00;1.00;;;;;;5028774;28;19920;-73
2021/11/05 05:19:09;;;;;;;;;;;6.00;1.00;;;;;;5029685;28;19996;-73
2021/11/05 05:21:34;;;;;;;;;;;6.00;1.00;;;;;;5029262;28;19909;-73
2021/11/05 05:24:00;;;;;;;;;;;6.00;1.00;;;;;;5029010;28;19917;-73
2021/11/05 05:26:25;;;;;;;;;;;6.00;1.00;;;;;;5028352;28;20413;-74
2021/11/05 05:28:51;;;;;;;;;;;6.00;1.00;;;;;;5029885;28;19913;-73
2021/11/05 05:31:16;;;;;;;;;;;6.00;1.00;;;;;;5028475;28;19913;-73
2021/11/05 05:33:42;;;;;;;;;;;6.10;1.00;;;;;;5028919;28;20000;-73
2021/11/05 05:36:08;;;;;;;;;;;6.00;1.00;;;;;;5029424;28;20346;-74
2021/11/05 05:38:34;;;;;;;;;;;6.00;1.00;;;;;;5029605;28;19913;-73
2021/11/05 05:41:00;;;;;;;;;;;6.00;1.00;;;;;;5028161;28;19959;-73
2021/11/05 05:43:26;;;;;;;;;;;6.00;1.00;;;;;;5028581;28;19945;-73
2021/11/05 05:45:51;;;;;;;;;;;6.00;1.00;;;;;;5024689;28;20430;-72
2021/11/05 05:48:17;;;;;;;;;;;6.00;1.00;;;;;;5010327;28;19971;-72
2021/11/05 05:50:43;;;;;;;;;;;6.00;1.00;;;;;;5028331;28;19913;-72
2021/11/05 05:53:08;;;;;;;;;;;6.00;1.00;;;;;;5028193;28;19967;-72
2021/11/05 05:55:35;;;;;;;;;;;6.00;1.00;;;;;;5009214;28;19909;-72
2021/11/05 05:58:00;;;;;;;;;;;6.00;1.00;;;;;;5029157;28;19909;-73
2021/11/05 06:00:29;;;;;;;;;;;6.00;1.00;;;;;;5029073;28;19983;-73
2021/11/05 06:02:54;;;;;;;;;;;6.00;1.00;;;;;;5028045;28;20275;-73
2021/11/05 06:05:19;;;;;;;;;;;6.00;1.00;;;;;;5028697;28;19909;-72
2021/11/05 06:07:45;;;;;;;;;;;6.00;1.00;;;;;;5028263;28;19936;-73
2021/11/05 06:10:10;;;;;;;;;;;6.00;1.00;;;;;;5028821;28;19913;-72
2021/11/05 06:12:36;;;;;;;;;;;6.10;1.00;;;;;;5027101;28;20409;-76
2021/11/05 06:15:03;;;;;;;;;;;6.10;1.00;;;;;;5027942;28;20000;-76
2021/11/05 06:17:28;;;;;;;;;;;6.10;1.00;;;;;;5028415;28;19913;-73
2021/11/05 06:19:54;;;;;;;;;;;6.10;1.00;;;;;;5028572;28;19963;-72
2021/11/05 06:22:19;;;;;;;;;;;6.10;1.00;;;;;;5028192;28;20358;-72
2021/11/05 06:24:45;;;;;;;;;;;6.20;1.00;;;;;;5028052;28;19909;-73
2021/11/05 06:27:11;;;;;;;;;;;6.20;1.00;;;;;;5028705;28;19916;-72
2021/11/05 06:29:36;;;;;;;;;;;6.20;1.00;;;;;;5028821;28;19948;-75
2021/11/05 06:32:02;;;;;;;;;;;6.50;1.00;;;;;;5030184;28;20024;-76
2021/11/05 06:34:27;;;;;;;;;;;6.60;1.00;;;;;;5032876;28;20098;-75
2021/11/05 06:36:53;;;;;;;;;;;6.60;1.00;;;;;;5029200;28;19917;-71
2021/11/05 06:39:19;;;;;;;;;;;6.60;99.90;;;;;;5027358;28;19956;-72
2021/11/05 06:41:44;;;;;;;;;;;6.50;99.90;;;;;;5025770;28;20281;-75
2021/11/05 06:44:10;;;;;;;;;;;6.50;99.90;;;;;;5029207;28;19988;-77
2021/11/05 06:46:36;;;;;;;;;;;6.50;99.90;;;;;;5028751;28;19913;-75
2021/11/05 06:49:01;;;;;;;;;;;6.50;99.90;;;;;;5029137;28;19978;-75
2021/11/05 06:51:27;;;;;;;;;;;6.40;99.90;;;;;;5028687;28;19984;-75
2021/11/05 06:53:52;;;;;;;;;;;6.40;99.90;;;;;;5028056;28;20270;-76
2021/11/05 06:56:18;;;;;;;;;;;6.30;99.90;;;;;;5028199;28;20416;-77
2021/11/05 06:58:44;;;;;;;;;;;6.40;99.90;;;;;;5028710;28;19914;-74
2021/11/05 07:01:11;;;;;;;;;;;6.40;99.90;;;;;;5028337;28;19923;-76
2021/11/05 07:03:36;;;;;;;;;;;6.40;99.90;;;;;;5028377;28;19940;-75
2021/11/05 07:06:02;;;;;;;;;;;6.50;99.90;;;;;;5024435;28;19913;-75
2021/11/05 07:08:28;;;;;;;;;;;6.50;99.90;;;;;;5029160;28;19922;-74
2021/11/05 07:10:54;;;;;;;;;;;6.60;99.90;;;;;;5028161;28;19919;-74
2021/11/05 07:13:19;;;;;;;;;;;6.90;99.90;;;;;;5028265;28;20011;-76
2021/11/05 07:15:45;;;;;;;;;;;7.20;1.00;;;;;;5012181;28;19974;-75
2021/11/05 07:18:11;;;;;;;;;;;7.50;1.00;;;;;;5028514;28;20310;-75
2021/11/05 07:20:37;;;;;;;;;;;7.90;1.00;;;;;;5029203;28;19967;-74
2021/11/05 07:23:03;;;;;;;;;;;8.50;99.90;;;;;;5027767;28;19913;-73
2021/11/05 07:25:29;;;;;;;;;;;8.90;1.00;;;;;;5027925;28;19928;-77
2021/11/05 07:27:54;;;;;;;;;;;9.40;46.20;;;;;;5028350;28;19921;-78
2021/11/05 07:30:21;;;;;;;;;;;9.80;1.00;;;;;;5028885;28;19917;-74
2021/11/05 07:32:47;;;;;;;;;;;9.90;99.90;;;;;;5027326;28;20011;-75
2021/11/05 07:35:14;;;;;;;;;;;10.10;99.90;;;;;;5027879;28;20661;-74
2021/11/05 07:37:40;;;;;;;;;;;10.20;5.00;;;;;;5028318;28;19914;-74
2021/11/05 07:40:08;;;;;;;;;;;10.20;1.00;;;;;;5027579;28;19913;-74
2021/11/05 07:42:35;;;;;;;;;;;10.20;1.00;;;;;;5027411;28;19913;-74
2021/11/05 07:45:00;;;;;;;;;;;10.10;1.00;;;;;;5027927;28;19923;-74
2021/11/05 07:47:26;;;;;;;;;;;10.10;1.00;;;;;;5027239;28;19917;-74
2021/11/05 07:49:51;;;;;;;;;;;10.10;1.00;;;;;;5028463;28;20035;-74
2021/11/05 07:52:19;;;;;;;;;;;10.10;1.00;;;;;;5011446;28;19923;-74
2021/11/05 07:54:47;;;;;;;;;;;10.00;1.00;;;;;;5029887;28;20350;-74
2021/11/05 07:57:13;;;;;;;;;;;9.80;1.00;;;;;;5029172;28;20008;-74
2021/11/05 07:59:39;;;;;;;;;;;9.60;1.00;;;;;;5029712;28;19927;-74
2021/11/05 08:02:05;;;;;;;;;;;9.40;1.00;;;;;;5021741;28;19913;-74
2021/11/05 08:04:30;;;;;;;;;;;9.20;1.00;;;;;;5029715;28;20580;-74
2021/11/05 08:06:56;;;;;;;;;;;9.00;1.00;;;;;;5029211;28;19917;-73
2021/11/05 08:09:21;;;;;;;;;;;9.00;66.00;;;;;;5030287;28;19932;-74
2021/11/05 08:11:47;;;;;;;;;;;9.00;99.90;;;;;;5028501;28;19971;-74
2021/11/05 08:14:12;;;;;;;;;;;9.00;99.90;;;;;;5030053;28;20043;-73
2021/11/05 08:16:38;;;;;;;;;;;9.00;99.90;;;;;;5029015;28;19917;-73
2021/11/05 08:19:04;;;;;;;;;;;9.00;90.80;;;;;;5030528;28;19917;-74
2021/11/05 08:21:29;;;;;;;;;;;9.00;99.90;;;;;;5028858;28;19917;-73
2021/11/05 08:23:55;;;;;;;;;;;9.10;99.90;;;;;;5028888;28;20286;-73
2021/11/05 08:26:20;;;;;;;;;;;9.20;99.90;;;;;;5029378;28;19920;-75
2021/11/05 08:28:46;;;;;;;;;;;9.30;99.90;;;;;;5029732;28;20332;-74
2021/11/05 08:31:13;;;;;;;;;;;9.40;94.50;;;;;;5029177;28;19992;-74
2021/11/05 08:33:39;;;;;;;;;;;9.50;11.50;;;;;;5029413;28;20405;-74
2021/11/05 08:36:06;;;;;;;;;;;9.50;19.60;;;;;;5028915;28;19917;-74
2021/11/05 08:38:33;;;;;;;;;;;9.50;21.90;;;;;;5021549;28;20255;-74
2021/11/05 08:40:59;;;;;;;;;;;9.60;14.00;;;;;;5028893;28;20243;-74
2021/11/05 08:43:25;;;;;;;;;;;9.60;7.70;;;;;;5028875;28;20046;-74
2021/11/05 08:45:51;;;;;;;;;;;9.50;1.00;;;;;;5028538;28;19913;-74
2021/11/05 08:48:19;;;;;;;;;;;9.40;3.30;;;;;;5029533;28;19921;-73
2021/11/05 08:50:44;;;;;;;;;;;9.40;28.70;;;;;;5029113;28;20012;-74
2021/11/05 08:53:10;;;;;;;;;;;9.30;57.80;;;;;;5028158;28;19925;-74
2021/11/05 08:55:37;;;;;;;;;;;9.40;99.50;;;;;;5029088;28;19913;-74
2021/11/05 08:58:03;;;;;;;;;;;9.40;99.90;;;;;;5029107;28;19913;-75
2021/11/05 09:00:32;;;;;;;;;;;9.40;99.90;;;;;;5029101;28;20430;-74
2021/11/05 09:02:58;;;;;;;;;;;9.50;99.90;;;;;;5027597;28;19917;-74
2021/11/05 09:05:23;;;;;;;;;;;9.60;99.90;;;;;;5029184;28;19919;-74
2021/11/05 09:07:49;;;;;;;;;;;9.80;99.90;;;;;;5029453;28;19979;-75
2021/11/05 09:10:15;;;;;;;;;;;9.90;21.50;;;;;;5028690;28;19971;-74
2021/11/05 09:12:41;;;;;;;;;;;10.30;1.00;;;;;;5027666;28;19913;-74
2021/11/05 09:15:08;;;;;;;;;;;11.70;1.00;;;;;;5028903;28;19917;-74
2021/11/05 09:17:35;;;;;;;;;;;12.50;1.00;;;;;;5028522;28;19913;-74
2021/11/05 09:20:02;;;;;;;;;;;12.60;99.90;;;;;;5028885;28;20003;-74
2021/11/05 09:22:27;;;;;;;;;;;12.60;99.90;;;;;;5028096;28;19924;-73
2021/11/05 09:24:53;;;;;;;;;;;12.80;99.90;;;;;;5028195;28;20242;-73
2021/11/05 09:27:18;;;;;;;;;;;12.80;99.90;;;;;;5028806;28;19979;-73
2021/11/05 09:29:44;;;;;;;;;;;12.80;99.90;;;;;;5029061;28;19921;-74
2021/11/05 09:32:09;;;;;;;;;;;12.70;99.90;;;;;;5027707;28;19955;-75
2021/11/05 09:34:35;;;;;;;;;;;12.30;99.90;;;;;;5028665;28;19913;-75
2021/11/05 09:37:02;;;;;;;;;;;12.00;99.90;;;;;;5028035;28;19917;-74
2021/11/05 09:39:30;;;;;;;;;;;11.70;99.90;;;;;;5029024;28;19925;-74
2021/11/05 09:41:56;;;;;;;;;;;11.30;99.90;;;;;;5026999;28;19916;-74
2021/11/05 09:44:21;;;;;;;;;;;11.00;99.90;;;;;;5028346;28;19917;-74
2021/11/05 09:46:47;;;;;;;;;;;10.70;1.00;;;;;;5027515;28;20385;-74
2021/11/05 09:49:13;;;;;;;;;;;10.50;1.00;;;;;;5028768;28;19924;-74
2021/11/05 09:51:40;;;;;;;;;;;10.40;1.00;;;;;;5028150;28;20058;-73
2021/11/05 09:54:05;;;;;;;;;;;10.30;1.00;;;;;;5028154;28;19936;-72
2021/11/05 09:56:31;;;;;;;;;;;10.30;1.00;;;;;;5009727;28;19917;-72
2021/11/05 09:58:56;;;;;;;;;;;10.30;1.00;;;;;;5028306;28;19943;-72
2021/11/05 10:01:22;;;;;;;;;;;10.50;1.00;;;;;;5027573;28;19927;-74
2021/11/05 10:03:47;;;;;;;;;;;10.50;1.00;;;;;;5028171;28;19913;-75
2021/11/05 10:06:13;;;;;;;;;;;10.60;1.00;;;;;;5029674;28;19913;-73
2021/11/05 10:08:39;;;;;;;;;;;10.50;1.00;;;;;;5032869;28;20028;-74
2021/11/05 10:11:25;;;;;;;;;;;10.30;1.00;;;;;;5031570;28;20017;-73
2021/11/05 10:13:53;;;;;;;;;;;10.10;1.00;;;;;;5031485;28;19921;-75
2021/11/05 10:16:20;;;;;;;;;;;10.00;1.00;;;;;;5031387;28;19913;-73
2021/11/05 10:19:05;;;;;;;;;;;10.00;1.00;;;;;;5032920;28;20008;-72
2021/11/05 10:21:40;;;;;;;;;;;9.90;1.00;;;;;;5024006;28;19956;-74
2021/11/05 10:24:07;;;;;;;;;;;9.90;33.50;;;;;;5031435;28;19913;-74
2021/11/05 10:26:33;;;;;;;;;;;9.90;1.00;;;;;;5031772;28;20381;-74
2021/11/05 10:28:59;;;;;;;;;;;9.90;1.00;;;;;;5031849;28;19940;-74
2021/11/05 10:31:26;;;;;;;;;;;10.10;1.00;;;;;;5031373;28;19913;-74
2021/11/05 10:33:51;;;;;;;;;;;10.20;1.00;;;;;;5031013;28;19951;-72
2021/11/05 10:36:18;;;;;;;;;;;10.40;1.00;;;;;;5031311;28;19937;-72
2021/11/05 10:38:48;;;;;;;;;;;10.50;1.00;;;;;;5032171;28;19967;-72
2021/11/05 10:41:19;;;;;;;;;;;10.60;1.00;;;;;;5031211;28;19944;-73
2021/11/05 10:43:49;;;;;;;;;;;10.70;1.00;;;;;;5031607;28;20388;-73
2021/11/05 10:46:27;;;;;;;;;;;10.80;1.00;;;;;;5031272;28;19913;-73
2021/11/05 10:48:53;;;;;;;;;;;10.90;1.00;;;;;;5032063;28;19917;-72
2021/11/05 10:51:20;;;;;;;;;;;11.10;1.00;;;;;;5030513;28;20307;-74
2021/11/05 10:53:45;;;;;;;;;;;11.40;1.00;;;;;;5031105;28;19921;-73
2021/11/05 10:56:14;;;;;;;;;;;11.80;1.00;;;;;;5028675;28;20039;-73
2021/11/05 10:58:59;;;;;;;;;;;12.50;1.00;;;;;;5025633;28;20000;-73
2021/11/05 11:01:25;;;;;;;;;;;12.60;1.00;;;;;;5024194;28;19924;-73
2021/11/05 11:03:58;;;;;;;;;;;12.70;1.00;;;;;;5025069;28;19913;-73
2021/11/05 11:06:34;;;;;;;;;;;12.50;99.90;;;;;;5029891;28;19928;-74
2021/11/05 11:09:03;;;;;;;;;;;12.30;1.00;;;;;;5029214;28;19917;-74
2021/11/05 11:11:33;;;;;;;;;;;12.00;1.00;;;;;;5029947;28;19913;-73
2021/11/05 11:14:00;;;;;;;;;;;11.90;1.00;;;;;;5026306;28;19917;-74
2021/11/05 11:16:27;;;;;;;;;;;11.80;1.00;;;;;;5026259;28;19913;-74
2021/11/05 11:19:02;;;;;;;;;;;11.80;1.00;;;;;;5030762;28;19967;-74
2021/11/05 11:21:33;;;;;;;;;;;11.80;1.00;;;;;;5030825;28;19917;-74
2021/11/05 11:23:59;;;;;;;;;;;11.70;1.00;;;;;;5013665;28;19925;-73
2021/11/05 11:26:27;;;;;;;;;;;11.70;1.00;;;;;;5030189;28;19913;-75
2021/11/05 11:28:52;;;;;;;;;;;11.50;1.00;;;;;;5031176;28;19971;-73
2021/11/05 11:31:18;;;;;;;;;;;11.50;1.00;;;;;;5030183;28;19921;-74
2021/11/05 11:33:44;;;;;;;;;;;11.50;1.00;;;;;;5029974;28;19914;-74
2021/11/05 11:36:10;;;;;;;;;;;11.60;1.00;;;;;;5030721;28;19967;-72
2021/11/05 11:38:36;;;;;;;;;;;11.60;1.00;;;;;;5030807;28;19967;-73
2021/11/05 11:41:05;;;;;;;;;;;11.70;1.00;;;;;;5029504;28;19949;-71
2021/11/05 11:43:30;;;;;;;;;;;11.70;1.00;;;;;;5030100;28;19913;-72
2021/11/05 11:45:57;;;;;;;;;;;11.60;1.00;;;;;;5029657;28;20002;-72
2021/11/05 11:48:41;;;;;;;;;;;11.40;1.00;;;;;;5030854;28;19917;-71
2021/11/05 11:51:16;;;;;;;;;;;11.20;1.00;;;;;;5029588;28;19963;-72
2021/11/05 11:53:42;;;;;;;;;;;10.80;1.00;;;;;;5029906;28;19917;-72
2021/11/05 11:56:07;;;;;;;;;;;10.60;1.00;;;;;;5030052;28;19967;-72
2021/11/05 11:58:33;;;;;;;;;;;10.50;1.00;;;;;;5031695;28;19909;-71
2021/11/05 12:01:18;;;;;;;;;;;10.50;1.00;;;;;;5032155;28;19920;-71
2021/11/05 12:04:03;;;;;;;;;;;10.40;1.00;;;;;;5031972;28;20381;-72
2021/11/05 12:06:48;;;;;;;;;;;10.40;1.00;;;;;;5030585;28;19920;-72
2021/11/05 12:09:23;;;;;;;;;;;10.60;1.00;;;;;;5031906;28;19952;-72
2021/11/05 12:11:48;;;;;;;;;;;11.00;1.00;;;;;;5029956;28;20003;-72
2021/11/05 12:14:15;;;;;;;;;;;11.50;1.00;;;;;;5032047;28;19909;-71
2021/11/05 12:16:42;;;;;;;;;;;11.80;1.00;;;;;;5030143;28;19913;-73
2021/11/05 12:19:08;;;;;;;;;;;11.80;1.00;;;;;;5031400;28;20000;-72
2021/11/05 12:21:37;;;;;;;;;;;11.90;1.00;;;;;;5031136;28;19909;-72
2021/11/05 12:24:15;;;;;;;;;;;11.90;1.00;;;;;;5028100;28;20008;-73
2021/11/05 12:26:40;;;;;;;;;;;11.60;1.00;;;;;;5031019;28;20251;-73
2021/11/05 12:29:06;;;;;;;;;;;11.70;1.00;;;;;;5030458;28;19917;-75
2021/11/05 12:31:35;;;;;;;;;;;11.80;1.00;;;;;;5030734;28;20012;-73
2021/11/05 12:34:16;;;;;;;;;;;11.40;1.00;;;;;;5018911;28;20016;-73
2021/11/05 12:36:49;;;;;;;;;;;11.40;1.00;;;;;;5012251;28;19920;-73
2021/11/05 12:39:26;;;;;;;;;;;11.40;1.00;;;;;;5014427;28;19928;-73
2021/11/05 12:41:59;;;;;;;;;;;11.00;1.00;;;;;;5015749;28;19956;-73
2021/11/05 12:44:27;;;;;;;;;;;10.80;1.00;;;;;;5036260;28;19917;-73
2021/11/05 12:46:52;;;;;;;;;;;10.70;1.00;;;;;;5037790;28;19910;-73
2021/11/05 12:49:19;;;;;;;;;;;10.70;1.00;;;;;;5035697;28;19913;-73
2021/11/05 12:51:46;;;;;;;;;;;10.60;1.00;;;;;;5035073;28;19909;-73
2021/11/05 12:54:39;;;;;;;;;;;10.60;1.00;;;;;;5036610;28;19917;-73
2021/11/05 12:57:05;;;;;;;;;;;10.70;1.00;;;;;;5024971;22;20248;-71
2021/11/05 12:59:31;;;;;;;;;;;10.80;1.00;;;;;;5010890;28;19917;-71
2021/11/05 13:02:01;;;;;;;;;;;11.00;1.00;;;;;;4995156;28;20351;-70
2021/11/05 13:04:28;;;;;;;;;;;11.10;1.00;;;;;;5003156;28;19917;-70
2021/11/05 13:06:55;;;;;;;;;;;11.40;1.00;;;;;;5008840;28;19972;-71
2021/11/05 13:09:22;;;;;;;;;;;11.40;1.00;;;;;;5005416;28;19917;-71
2021/11/05 13:11:52;;;;;;;;;;;11.50;1.00;;;;;;5008425;28;19910;-72
2021/11/05 13:14:17;;;;;;;;;;;11.30;1.00;;;;;;5010174;28;19910;-71
2021/11/05 13:16:43;;;;;;;;;;;11.10;1.00;;;;;;5008815;28;19917;-71
2021/11/05 13:19:08;;;;;;;;;;;10.90;1.00;;;;;;5009897;28;19909;-70
2021/11/05 13:21:34;;;;;;;;;;;10.70;1.00;;;;;;5009463;28;19914;-70
2021/11/05 13:24:02;;;;;;;;;;;10.60;1.00;;;;;;5009749;28;19921;-71
2021/11/05 13:26:28;;;;;;;;;;;10.40;1.00;;;;;;5008074;28;19917;-70
2021/11/05 13:28:54;;;;;;;;;;;10.30;1.00;;;;;;5010427;28;19948;-70
2021/11/05 13:31:21;;;;;;;;;;;10.30;1.00;;;;;;5008931;28;20358;-70
2021/11/05 13:33:48;;;;;;;;;;;10.30;1.00;;;;;;5008403;28;19947;-70
2021/11/05 13:36:14;;;;;;;;;;;10.20;1.00;;;;;;5008870;28;19913;-71
2021/11/05 13:38:44;;;;;;;;;;;10.10;99.90;;;;;;5007666;28;19913;-71
2021/11/05 13:41:11;;;;;;;;;;;10.20;1.00;;;;;;5007749;28;19913;-71
2021/11/05 13:43:38;;;;;;;;;;;10.10;1.00;;;;;;5008916;28;20370;-71
2021/11/05 13:46:05;;;;;;;;;;;10.00;7.20;;;;;;5008380;28;19971;-71
2021/11/05 13:48:32;;;;;;;;;;;10.00;1.00;;;;;;5009131;28;19925;-71
2021/11/05 13:51:10;;;;;;;;;;;9.90;1.00;;;;;;5008931;28;20325;-70
2021/11/05 13:53:43;;;;;;;;;;;9.80;18.20;;;;;;5009093;28;19914;-69
2021/11/05 13:56:23;;;;;;;;;;;9.70;32.60;;;;;;5008593;28;19924;-70
2021/11/05 13:58:56;;;;;;;;;;;9.60;99.90;;;;;;5008360;28;19917;-71
2021/11/05 14:01:23;;;;;;;;;;;9.60;1.00;;;;;;5009101;28;19914;-70
2021/11/05 14:03:49;;;;;;;;;;;9.70;9.30;;;;;;4990776;28;19957;-70
2021/11/05 14:06:15;;;;;;;;;;;9.80;18.20;;;;;;5008835;28;19968;-70
2021/11/05 14:08:54;;;;;;;;;;;9.90;84.80;;;;;;5009379;28;19921;-71
2021/11/05 14:11:37;;;;;;;;;;;10.00;1.00;;;;;;5008078;28;20036;-70
2021/11/05 14:14:04;;;;;;;;;;;10.00;34.60;;;;;;5008828;28;20235;-71
2021/11/05 14:16:31;;;;;;;;;;;10.00;1.00;;;;;;5008607;28;19996;-69
2021/11/05 14:19:10;;;;;;;;;;;10.00;1.00;;;;;;5009282;28;19951;-70
2021/11/05 14:21:37;;;;;;;;;;;9.90;1.00;;;;;;5008286;28;19981;-70
2021/11/05 14:24:12;;;;;;;;;;;9.80;1.00;;;;;;5008040;28;20436;-70
2021/11/05 14:26:38;;;;;;;;;;;9.60;28.60;;;;;;5007649;28;19933;-71
2021/11/05 14:29:08;;;;;;;;;;;9.50;99.90;;;;;;5008879;28;19917;-70
2021/11/05 14:31:52;;;;;;;;;;;9.30;1.00;;;;;;5008009;28;19975;-70
2021/11/05 14:34:18;;;;;;;;;;;9.30;1.00;;;;;;5008660;28;19913;-70